Time;durP1;ratioP1;P1;durP2;ratioP2;P2;SDS_P1;SDS_P2;PMS_P1;PMS_P2;Temp;Humidity;BMP_temperature;BMP_pressure;BME280_temperature;BME280_humidity;BME280_pressure;Samples;Min_cycle;Max_cycle;Signal;HPM_P1;HPM_P2
2022/09/21 00:01:04;;;;;;;10.97;5.47;;;;;;;;;;4986519;28;20248;-78
2022/09/21 00:03:31;;;;;;;12.27;4.97;;;;;;;;;;4984580;28;20220;-77
2022/09/21 00:06:02;;;;;;;9.47;5.20;;;;;;;;;;4984180;28;20205;-76
2022/09/21 00:08:29;;;;;;;12.23;5.13;;;;;;;;;;4983982;28;20247;-78
2022/09/21 00:10:56;;;;;;;11.90;4.93;;;;;;;;;;4982709;28;20763;-77
2022/09/21 00:13:27;;;;;;;10.90;5.20;;;;;;;;;;4983555;28;20225;-77
2022/09/21 00:15:57;;;;;;;14.87;5.10;;;;;;;;;;4984766;28;20213;-77
2022/09/21 00:18:24;;;;;;;8.77;4.67;;;;;;;;;;4984344;28;20205;-77
2022/09/21 00:20:52;;;;;;;11.37;5.43;;;;;;;;;;4983169;28;20291;-77
2022/09/21 00:23:21;;;;;;;15.50;5.60;;;;;;;;;;4985277;28;20225;-76
2022/09/21 00:25:48;;;;;;;14.77;6.90;;;;;;;;;;4986281;28;20216;-77
2022/09/21 00:28:21;;;;;;;14.03;6.27;;;;;;;;;;4983476;28;20209;-78
2022/09/21 00:30:50;;;;;;;12.53;6.03;;;;;;;;;;4985110;28;20571;-78
2022/09/21 00:33:19;;;;;;;11.83;5.23;;;;;;;;;;4983410;28;20220;-76
2022/09/21 00:35:46;;;;;;;18.70;5.33;;;;;;;;;;4982561;28;20232;-77
2022/09/21 00:38:14;;;;;;;12.27;5.57;;;;;;;;;;4979693;28;20625;-77
2022/09/21 00:40:43;;;;;;;12.47;5.70;;;;;;;;;;4982867;28;20209;-77
2022/09/21 00:43:14;;;;;;;14.73;6.03;;;;;;;;;;4987179;28;20235;-76
2022/09/21 00:45:44;;;;;;;16.50;5.57;;;;;;;;;;4979265;28;20205;-76
2022/09/21 00:48:11;;;;;;;19.20;5.90;;;;;;;;;;4984308;28;20220;-76
2022/09/21 00:50:43;;;;;;;13.57;6.27;;;;;;;;;;4982371;28;20320;-76
2022/09/21 00:53:10;;;;;;;10.37;5.47;;;;;;;;;;4986313;28;20243;-78
2022/09/21 00:55:41;;;;;;;10.13;5.57;;;;;;;;;;4983109;28;20612;-76
2022/09/21 00:58:10;;;;;;;13.13;5.60;;;;;;;;;;4984691;28;20296;-77
2022/09/21 01:00:42;;;;;;;13.63;5.73;;;;;;;;;;4983295;28;20224;-78
2022/09/21 01:03:11;;;;;;;11.77;5.30;;;;;;;;;;4984723;28;20239;-78
2022/09/21 01:05:38;;;;;;;12.93;5.40;;;;;;;;;;4983424;28;20277;-77
2022/09/21 01:08:08;;;;;;;10.37;5.40;;;;;;;;;;4981587;28;20237;-77
2022/09/21 01:10:41;;;;;;;13.53;5.30;;;;;;;;;;4983552;28;20267;-77
2022/09/21 01:13:13;;;;;;;9.83;5.10;;;;;;;;;;4984848;28;20243;-77
2022/09/21 01:15:43;;;;;;;10.40;4.70;;;;;;;;;;4985541;28;20205;-78
2022/09/21 01:18:13;;;;;;;11.10;5.17;;;;;;;;;;4984246;28;20200;-77
2022/09/21 01:20:46;;;;;;;12.17;4.90;;;;;;;;;;4982597;28;20685;-77
2022/09/21 01:23:33;;;;;;;12.50;4.83;;;;;;;;;;4981899;28;20232;-77
2022/09/21 01:26:05;;;;;;;8.73;4.30;;;;;;;;;;4985262;28;20268;-78
2022/09/21 01:31:46;;;;;;;7.67;4.20;;;;;;;;;;4931644;28;20245;-76
2022/09/21 01:37:04;;;;;;;10.80;5.13;;;;;;;;;;4965693;28;20287;-76
2022/09/21 01:39:31;;;;;;;8.93;4.53;;;;;;;;;;4988933;28;20205;-75
2022/09/21 01:41:59;;;;;;;12.40;4.73;;;;;;;;;;4985969;28;20232;-76
2022/09/21 01:44:32;;;;;;;10.43;4.63;;;;;;;;;;4990637;28;20220;-77
2022/09/21 01:47:00;;;;;;;8.27;4.60;;;;;;;;;;4985393;28;20210;-75
2022/09/21 01:49:33;;;;;;;8.73;4.43;;;;;;;;;;4988866;28;20631;-76
2022/09/21 01:52:03;;;;;;;9.27;4.10;;;;;;;;;;4983835;28;20761;-77
2022/09/21 01:54:33;;;;;;;9.87;4.63;;;;;;;;;;4988221;28;20201;-77
2022/09/21 01:57:03;;;;;;;8.60;4.40;;;;;;;;;;4986872;28;20697;-77
2022/09/21 01:59:36;;;;;;;8.50;4.27;;;;;;;;;;4987128;28;20209;-77
2022/09/21 02:02:06;;;;;;;9.53;3.80;;;;;;;;;;4987836;28;20312;-77
2022/09/21 02:04:35;;;;;;;8.90;4.20;;;;;;;;;;4987421;28;20237;-77
2022/09/21 02:07:02;;;;;;;10.83;4.50;;;;;;;;;;4987540;28;20205;-78
2022/09/21 02:09:29;;;;;;;7.73;4.17;;;;;;;;;;4985296;28;20212;-78
2022/09/21 02:11:57;;;;;;;8.97;4.63;;;;;;;;;;4985604;28;20232;-76
2022/09/21 02:14:25;;;;;;;8.40;4.70;;;;;;;;;;4992277;28;20314;-77
2022/09/21 02:16:57;;;;;;;12.07;4.53;;;;;;;;;;4988823;28;20264;-76
2022/09/21 02:19:32;;;;;;;13.47;4.87;;;;;;;;;;4984385;28;20252;-76
2022/09/21 02:22:03;;;;;;;8.37;3.90;;;;;;;;;;4987840;28;20253;-76
2022/09/21 02:24:35;;;;;;;11.73;4.40;;;;;;;;;;4985211;28;20722;-77
2022/09/21 02:27:04;;;;;;;10.07;4.20;;;;;;;;;;4986710;28;20213;-77
2022/09/21 02:29:36;;;;;;;16.23;4.60;;;;;;;;;;4988534;28;20890;-77
2022/09/21 02:32:05;;;;;;;8.87;4.27;;;;;;;;;;4985495;28;20275;-75
2022/09/21 02:34:36;;;;;;;11.23;4.60;;;;;;;;;;4986307;28;20208;-76
2022/09/21 02:37:09;;;;;;;9.73;4.30;;;;;;;;;;4985971;28;20205;-77
2022/09/21 02:39:39;;;;;;;9.30;4.40;;;;;;;;;;4987512;28;20244;-76
2022/09/21 02:42:09;;;;;;;8.23;4.43;;;;;;;;;;4987331;28;20224;-78
2022/09/21 02:44:39;;;;;;;14.63;4.20;;;;;;;;;;4987651;28;20236;-78
2022/09/21 02:47:10;;;;;;;9.17;4.50;;;;;;;;;;4982956;28;20209;-76
2022/09/21 02:49:40;;;;;;;10.83;4.13;;;;;;;;;;4985763;28;20216;-77
2022/09/21 02:52:11;;;;;;;12.43;4.57;;;;;;;;;;4985607;28;20244;-76
2022/09/21 02:54:40;;;;;;;11.93;4.07;;;;;;;;;;4999656;23;20526;-83
2022/09/21 02:57:07;;;;;;;10.23;4.63;;;;;;;;;;4998845;28;20235;-83
2022/09/21 02:59:35;;;;;;;14.83;5.10;;;;;;;;;;4998087;28;20209;-83
2022/09/21 03:02:05;;;;;;;11.37;4.73;;;;;;;;;;4997358;28;20273;-83
2022/09/21 03:04:33;;;;;;;9.17;4.57;;;;;;;;;;4994861;28;20348;-84
2022/09/21 03:07:02;;;;;;;13.37;5.00;;;;;;;;;;4993304;28;20240;-83
2022/09/21 03:09:29;;;;;;;10.10;4.70;;;;;;;;;;4996873;28;20220;-83
2022/09/21 03:11:57;;;;;;;9.23;5.17;;;;;;;;;;4999747;28;20272;-83
2022/09/21 03:14:24;;;;;;;9.83;5.10;;;;;;;;;;4997951;28;20229;-83
2022/09/21 03:16:52;;;;;;;14.37;4.23;;;;;;;;;;5013621;28;20277;-83
2022/09/21 03:19:19;;;;;;;13.30;4.00;;;;;;;;;;5011238;28;20213;-83
2022/09/21 03:21:47;;;;;;;7.93;4.10;;;;;;;;;;5011580;28;20186;-83
2022/09/21 03:24:44;;;;;;;10.07;4.40;;;;;;;;;;5009343;28;20209;-83
2022/09/21 03:27:04;;;;;;;10.60;4.67;;;;;;;;;;5007849;28;20203;-82
2022/09/21 03:29:31;;;;;;;14.10;4.20;;;;;;;;;;5010459;28;20199;-83
2022/09/21 03:31:59;;;;;;;9.80;4.03;;;;;;;;;;5006304;28;20273;-83
2022/09/21 03:34:26;;;;;;;14.73;4.20;;;;;;;;;;5008214;28;20240;-83
2022/09/21 03:36:53;;;;;;;12.00;4.30;;;;;;;;;;5009865;28;20232;-82
2022/09/21 03:39:22;;;;;;;9.03;3.97;;;;;;;;;;5003187;28;20205;-82
2022/09/21 03:41:50;;;;;;;7.47;3.80;;;;;;;;;;5006211;28;20208;-84
2022/09/21 03:44:18;;;;;;;11.37;4.37;;;;;;;;;;5011705;28;20236;-83
2022/09/21 03:46:46;;;;;;;12.60;4.40;;;;;;;;;;5009962;28;20196;-84
2022/09/21 03:49:13;;;;;;;7.90;4.03;;;;;;;;;;5010746;28;20189;-82
2022/09/21 03:51:42;;;;;;;13.37;4.47;;;;;;;;;;4998998;28;20210;-82
2022/09/21 03:54:10;;;;;;;9.30;3.70;;;;;;;;;;5002225;28;20290;-83
2022/09/21 03:56:39;;;;;;;12.17;4.40;;;;;;;;;;5004624;28;20209;-82
2022/09/21 03:59:06;;;;;;;13.00;3.63;;;;;;;;;;4999987;28;20206;-83
2022/09/21 04:01:35;;;;;;;10.73;3.90;;;;;;;;;;4997353;28;20237;-82
2022/09/21 04:04:02;;;;;;;8.87;3.77;;;;;;;;;;4997834;28;20236;-84
2022/09/21 04:06:30;;;;;;;12.50;4.20;;;;;;;;;;4996076;28;20215;-84
2022/09/21 04:08:59;;;;;;;8.70;4.17;;;;;;;;;;4994487;28;20225;-85
2022/09/21 04:11:26;;;;;;;15.90;4.10;;;;;;;;;;5000867;28;20209;-85
2022/09/21 04:13:56;;;;;;;9.30;3.67;;;;;;;;;;5003647;28;20242;-85
2022/09/21 04:16:24;;;;;;;7.70;3.60;;;;;;;;;;5004904;28;20248;-83
2022/09/21 04:19:00;;;;;;;19.43;4.80;;;;;;;;;;5005187;28;20271;-83
2022/09/21 04:21:28;;;;;;;6.80;3.77;;;;;;;;;;5006036;28;20287;-83
2022/09/21 04:23:56;;;;;;;8.00;4.50;;;;;;;;;;5005514;28;20256;-83
2022/09/21 04:26:25;;;;;;;7.00;3.47;;;;;;;;;;5004845;28;20249;-84
2022/09/21 04:28:53;;;;;;;13.10;3.73;;;;;;;;;;5010530;28;20202;-81
2022/09/21 04:31:22;;;;;;;9.67;5.23;;;;;;;;;;5005044;28;20209;-84
2022/09/21 04:33:50;;;;;;;13.77;6.77;;;;;;;;;;5005481;28;20225;-84
2022/09/21 04:36:18;;;;;;;11.20;5.73;;;;;;;;;;5001974;28;20205;-84
2022/09/21 04:38:46;;;;;;;14.50;6.30;;;;;;;;;;4990439;28;20259;-83
2022/09/21 04:41:13;;;;;;;17.83;6.60;;;;;;;;;;4989204;28;20209;-83
2022/09/21 04:43:42;;;;;;;14.63;6.10;;;;;;;;;;4985348;28;20284;-83
2022/09/21 04:46:10;;;;;;;25.63;7.30;;;;;;;;;;4986541;28;20705;-83
2022/09/21 04:48:39;;;;;;;19.67;7.10;;;;;;;;;;4991419;28;20200;-83
2022/09/21 04:51:07;;;;;;;27.77;6.90;;;;;;;;;;4987062;28;20265;-84
2022/09/21 04:53:35;;;;;;;22.97;6.50;;;;;;;;;;4985678;28;20251;-83
2022/09/21 04:56:04;;;;;;;19.77;7.03;;;;;;;;;;4985865;28;20224;-83
2022/09/21 04:58:31;;;;;;;14.73;5.60;;;;;;;;;;4990865;28;20219;-84
2022/09/21 05:00:59;;;;;;;8.40;4.90;;;;;;;;;;4987953;28;20205;-83
2022/09/21 05:03:27;;;;;;;10.73;5.57;;;;;;;;;;4981801;28;20327;-83
2022/09/21 05:05:56;;;;;;;11.27;6.40;;;;;;;;;;4986552;28;20717;-83
2022/09/21 05:11:05;;;;;;;15.30;6.77;;;;;;;;;;4984893;28;20201;-83
2022/09/21 05:13:33;;;;;;;17.80;6.43;;;;;;;;;;4991133;28;20232;-83
2022/09/21 05:16:00;;;;;;;15.67;6.83;;;;;;;;;;4992316;28;20259;-83
2022/09/21 05:18:28;;;;;;;13.43;6.23;;;;;;;;;;4993087;28;20744;-84
2022/09/21 05:20:57;;;;;;;20.10;5.67;;;;;;;;;;4987907;28;20244;-84
2022/09/21 05:23:24;;;;;;;11.03;5.00;;;;;;;;;;4988615;28;20236;-84
2022/09/21 05:25:52;;;;;;;18.47;4.67;;;;;;;;;;4985175;28;20610;-84
2022/09/21 05:28:20;;;;;;;10.43;4.27;;;;;;;;;;4987436;28;20204;-84
2022/09/21 05:30:52;;;;;;;10.27;4.77;;;;;;;;;;4992935;28;20267;-84
2022/09/21 05:33:21;;;;;;;20.90;4.97;;;;;;;;;;4984477;28;20213;-85
2022/09/21 05:35:55;;;;;;;14.97;5.03;;;;;;;;;;4989051;28;20225;-83
2022/09/21 05:38:24;;;;;;;7.87;4.67;;;;;;;;;;4989936;28;20392;-84
2022/09/21 05:40:52;;;;;;;8.97;5.40;;;;;;;;;;4990192;28;20209;-83
2022/09/21 05:43:20;;;;;;;9.23;4.70;;;;;;;;;;4990474;28;20670;-84
2022/09/21 05:45:48;;;;;;;10.83;4.47;;;;;;;;;;4988341;28;20217;-84
2022/09/21 05:48:18;;;;;;;18.03;5.20;;;;;;;;;;4988231;28;20205;-83
2022/09/21 05:50:56;;;;;;;10.47;4.87;;;;;;;;;;4984642;28;20259;-84
2022/09/21 05:53:30;;;;;;;11.80;4.73;;;;;;;;;;4988953;28;20308;-83
2022/09/21 05:55:59;;;;;;;11.20;4.57;;;;;;;;;;4988900;28;20216;-83
2022/09/21 05:58:30;;;;;;;25.83;4.93;;;;;;;;;;4989698;28;20721;-83
2022/09/21 06:01:04;;;;;;;12.13;4.37;;;;;;;;;;4985027;28;20244;-83
2022/09/21 06:03:34;;;;;;;8.67;4.47;;;;;;;;;;4992695;28;20587;-83
2022/09/21 06:06:02;;;;;;;14.10;4.87;;;;;;;;;;4986484;28;20600;-83
2022/09/21 06:08:31;;;;;;;17.63;5.20;;;;;;;;;;4990183;28;20680;-84
2022/09/21 06:10:59;;;;;;;13.13;5.10;;;;;;;;;;4986891;28;20667;-85
2022/09/21 06:13:28;;;;;;;17.40;5.27;;;;;;;;;;4985915;28;20232;-84
2022/09/21 06:15:57;;;;;;;14.17;5.40;;;;;;;;;;4993822;28;20673;-84
2022/09/21 06:18:24;;;;;;;12.63;5.43;;;;;;;;;;4988996;28;20213;-83
2022/09/21 06:20:52;;;;;;;11.23;5.20;;;;;;;;;;4985577;28;20224;-83
2022/09/21 06:23:20;;;;;;;9.83;4.07;;;;;;;;;;4988123;28;20214;-83
2022/09/21 06:25:53;;;;;;;9.30;4.80;;;;;;;;;;4988776;28;20232;-83
2022/09/21 06:28:31;;;;;;;13.00;4.47;;;;;;;;;;4983180;28;20585;-84
2022/09/21 06:30:59;;;;;;;11.30;4.53;;;;;;;;;;4985168;28;20215;-83
2022/09/21 06:33:34;;;;;;;21.07;5.07;;;;;;;;;;4985863;28;20236;-82
2022/09/21 06:36:02;;;;;;;14.37;4.30;;;;;;;;;;4987794;28;20201;-83
2022/09/21 06:38:30;;;;;;;8.93;4.00;;;;;;;;;;4983945;28;20658;-83
2022/09/21 06:41:04;;;;;;;12.87;4.43;;;;;;;;;;4981420;28;20213;-83
2022/09/21 06:43:35;;;;;;;7.97;3.57;;;;;;;;;;4986632;28;20228;-84
2022/09/21 06:46:03;;;;;;;6.67;3.57;;;;;;;;;;4986976;28;20323;-84
2022/09/21 06:48:31;;;;;;;12.53;3.20;;;;;;;;;;4981457;28;20665;-83
2022/09/21 06:50:59;;;;;;;7.00;3.40;;;;;;;;;;4985009;28;20209;-84
2022/09/21 06:53:26;;;;;;;7.23;3.13;;;;;;;;;;4988059;28;20240;-83
2022/09/21 06:55:54;;;;;;;4.50;2.70;;;;;;;;;;4987374;28;20224;-84
2022/09/21 06:58:23;;;;;;;5.10;2.70;;;;;;;;;;4985917;28;20197;-83
2022/09/21 07:00:50;;;;;;;3.03;1.97;;;;;;;;;;4983428;28;21889;-82
2022/09/21 07:03:18;;;;;;;3.47;2.30;;;;;;;;;;4983345;28;20267;-82
2022/09/21 07:05:45;;;;;;;4.13;2.33;;;;;;;;;;4983892;28;20318;-82
2022/09/21 07:08:13;;;;;;;6.50;2.40;;;;;;;;;;4983622;28;20237;-83
2022/09/21 07:10:40;;;;;;;5.37;2.70;;;;;;;;;;4983004;28;20201;-82
2022/09/21 07:13:08;;;;;;;4.50;2.50;;;;;;;;;;4980019;28;20257;-85
2022/09/21 07:15:37;;;;;;;3.87;2.30;;;;;;;;;;4986100;28;20209;-83
2022/09/21 07:18:12;;;;;;;6.57;2.50;;;;;;;;;;4982816;28;20216;-83
2022/09/21 07:20:40;;;;;;;4.50;2.43;;;;;;;;;;4981212;28;20287;-83
2022/09/21 07:23:11;;;;;;;3.67;2.23;;;;;;;;;;4983105;28;20236;-83
2022/09/21 07:25:38;;;;;;;3.90;2.10;;;;;;;;;;4983701;28;20221;-84
2022/09/21 07:28:09;;;;;;;5.73;2.63;;;;;;;;;;4986336;28;20205;-83
2022/09/21 07:30:38;;;;;;;4.10;2.20;;;;;;;;;;4983967;28;20212;-82
2022/09/21 07:39:16;;;;;;;2.97;1.87;;;;;;;;;;4892365;29;20730;-83
2022/09/21 07:41:50;;;;;;;4.63;2.13;;;;;;;;;;4976125;28;20205;-84
2022/09/21 07:44:19;;;;;;;8.07;2.60;;;;;;;;;;4981787;28;20240;-81
2022/09/21 07:46:48;;;;;;;17.00;2.57;;;;;;;;;;4979637;28;20216;-83
2022/09/21 07:49:16;;;;;;;7.50;2.30;;;;;;;;;;4979362;28;20220;-82
2022/09/21 07:51:43;;;;;;;7.47;2.10;;;;;;;;;;4983772;28;20846;-83
2022/09/21 07:54:12;;;;;;;13.67;3.10;;;;;;;;;;4979507;28;20236;-83
2022/09/21 07:56:39;;;;;;;8.97;2.30;;;;;;;;;;4981276;28;20213;-80
2022/09/21 07:59:06;;;;;;;7.17;2.40;;;;;;;;;;4982172;28;20235;-82
2022/09/21 08:01:34;;;;;;;8.97;2.07;;;;;;;;;;4982345;28;20202;-82
2022/09/21 08:04:03;;;;;;;7.70;2.40;;;;;;;;;;4980630;28;20999;-81
2022/09/21 08:06:32;;;;;;;9.87;2.70;;;;;;;;;;4981929;28;20299;-83
2022/09/21 08:08:59;;;;;;;7.03;2.63;;;;;;;;;;4979447;28;20672;-82
2022/09/21 08:11:29;;;;;;;8.03;2.53;;;;;;;;;;4982969;28;22223;-82
2022/09/21 08:13:58;;;;;;;6.50;2.67;;;;;;;;;;4982577;28;21438;-83
2022/09/21 08:16:25;;;;;;;4.37;2.00;;;;;;;;;;4980927;28;20201;-83
2022/09/21 08:18:53;;;;;;;4.53;1.93;;;;;;;;;;4979942;28;20219;-83
2022/09/21 08:21:22;;;;;;;7.67;2.13;;;;;;;;;;4979968;28;20201;-83
2022/09/21 08:23:50;;;;;;;7.37;2.20;;;;;;;;;;4982174;28;20229;-83
2022/09/21 08:26:18;;;;;;;7.43;2.13;;;;;;;;;;4981177;28;20236;-83
2022/09/21 08:28:47;;;;;;;6.70;2.00;;;;;;;;;;4983684;28;20742;-83
2022/09/21 08:31:15;;;;;;;11.23;2.93;;;;;;;;;;4979790;28;20832;-83
2022/09/21 08:33:43;;;;;;;11.40;2.50;;;;;;;;;;4983978;28;20485;-84
2022/09/21 08:36:10;;;;;;;7.00;2.03;;;;;;;;;;4982589;28;20548;-83
2022/09/21 08:38:43;;;;;;;5.53;2.40;;;;;;;;;;4974143;28;20226;-84
2022/09/21 08:41:16;;;;;;;8.27;2.20;;;;;;;;;;4983158;28;20700;-82
2022/09/21 08:46:33;;;;;;;9.97;1.60;;;;;;;;;;4975155;28;20232;-83
2022/09/21 08:49:05;;;;;;;12.10;1.30;;;;;;;;;;4981850;28;20213;-84
2022/09/21 08:51:35;;;;;;;4.87;1.87;;;;;;;;;;4980952;28;20219;-84
2022/09/21 08:54:07;;;;;;;5.13;2.13;;;;;;;;;;4980194;28;20236;-85
2022/09/21 08:56:35;;;;;;;15.87;2.77;;;;;;;;;;4980991;28;20287;-84
2022/09/21 08:59:02;;;;;;;9.13;2.47;;;;;;;;;;4980231;28;20209;-83
2022/09/21 09:01:34;;;;;;;6.23;2.17;;;;;;;;;;4981003;28;20293;-84
2022/09/21 09:04:23;;;;;;;7.00;2.70;;;;;;;;;;4984336;28;20225;-84
2022/09/21 09:06:53;;;;;;;9.40;1.90;;;;;;;;;;4984120;28;20244;-84
2022/09/21 09:09:27;;;;;;;7.50;2.43;;;;;;;;;;4981278;28;20673;-83
2022/09/21 09:12:09;;;;;;;4.87;1.93;;;;;;;;;;4985653;28;20739;-84
2022/09/21 09:18:16;;;;;;;;;;;;;;;;;;;;;
2022/09/21 09:20:46;;;;;;;3.30;1.53;;;;;;;;;;4984337;28;20209;-84
2022/09/21 09:23:15;;;;;;;6.33;1.47;;;;;;;;;;4981889;28;20209;-85
2022/09/21 09:25:47;;;;;;;5.50;1.30;;;;;;;;;;4985523;28;20702;-85
2022/09/21 09:28:21;;;;;;;4.93;1.40;;;;;;;;;;4983301;28;20216;-85
2022/09/21 09:30:53;;;;;;;3.43;0.90;;;;;;;;;;4985699;28;20232;-83
2022/09/21 09:36:02;;;;;;;6.33;1.03;;;;;;;;;;4973473;28;20231;-77
2022/09/21 09:38:31;;;;;;;8.87;3.43;;;;;;;;;;4983680;28;20220;-78
2022/09/21 09:41:14;;;;;;;10.67;2.80;;;;;;;;;;4984761;28;20213;-77
2022/09/21 09:43:46;;;;;;;14.50;4.23;;;;;;;;;;4987219;28;20239;-77
2022/09/21 09:46:19;;;;;;;8.00;1.50;;;;;;;;;;4984661;28;20221;-79
2022/09/21 09:48:55;;;;;;;11.43;4.07;;;;;;;;;;4984042;28;20209;-77
2022/09/21 09:51:22;;;;;;;7.57;1.80;;;;;;;;;;4984465;28;20831;-77
2022/09/21 09:53:49;;;;;;;4.67;1.43;;;;;;;;;;4983248;28;20240;-78
2022/09/21 09:56:19;;;;;;;4.60;1.10;;;;;;;;;;4986966;28;20585;-80
2022/09/21 09:58:48;;;;;;;4.47;0.77;;;;;;;;;;4987628;28;20209;-79
2022/09/21 10:01:34;;;;;;;1.77;0.70;;;;;;;;;;4991839;28;20236;-78
2022/09/21 10:04:06;;;;;;;4.93;0.90;;;;;;;;;;4987555;28;20236;-80
2022/09/21 10:06:33;;;;;;;4.10;0.80;;;;;;;;;;4989739;28;20225;-80
2022/09/21 10:09:01;;;;;;;2.30;0.70;;;;;;;;;;4987452;28;20211;-80
2022/09/21 10:11:38;;;;;;;1.47;0.67;;;;;;;;;;4990138;28;20205;-78
2022/09/21 10:14:10;;;;;;;4.47;0.60;;;;;;;;;;4986963;28;20288;-79
2022/09/21 10:16:41;;;;;;;1.23;0.60;;;;;;;;;;4988053;28;20197;-80
2022/09/21 10:19:14;;;;;;;3.33;0.97;;;;;;;;;;4985181;28;20669;-77
2022/09/21 10:21:43;;;;;;;2.90;0.80;;;;;;;;;;4990295;28;20216;-77
2022/09/21 10:24:16;;;;;;;7.27;1.40;;;;;;;;;;4982082;28;20279;-77
2022/09/21 10:26:46;;;;;;;3.53;1.00;;;;;;;;;;4982743;28;20717;-78
2022/09/21 10:29:29;;;;;;;2.23;0.70;;;;;;;;;;4983223;28;20197;-78
2022/09/21 10:31:57;;;;;;;4.07;0.90;;;;;;;;;;4982303;28;20295;-78
2022/09/21 10:34:26;;;;;;;8.97;0.73;;;;;;;;;;4983030;28;20279;-77
2022/09/21 10:36:54;;;;;;;5.33;0.80;;;;;;;;;;4976664;28;20309;-77
2022/09/21 10:39:23;;;;;;;3.83;0.67;;;;;;;;;;4982080;28;20248;-77
2022/09/21 10:41:58;;;;;;;2.73;0.63;;;;;;;;;;4979030;28;20214;-78
2022/09/21 10:44:27;;;;;;;6.93;0.70;;;;;;;;;;4986006;28;20232;-77
2022/09/21 10:46:55;;;;;;;3.97;0.90;;;;;;;;;;4985655;28;20232;-77
2022/09/21 10:49:24;;;;;;;3.37;0.90;;;;;;;;;;4980510;28;20229;-79
2022/09/21 10:51:53;;;;;;;1.77;0.70;;;;;;;;;;4978405;28;20216;-77
2022/09/21 10:54:22;;;;;;;4.00;0.70;;;;;;;;;;4980320;28;20221;-78
2022/09/21 10:56:54;;;;;;;5.23;0.90;;;;;;;;;;4982291;28;20216;-78
2022/09/21 10:59:25;;;;;;;3.20;0.73;;;;;;;;;;4983426;28;20229;-77
2022/09/21 11:01:53;;;;;;;2.17;0.57;;;;;;;;;;4984617;28;20284;-77
2022/09/21 11:04:23;;;;;;;3.20;0.80;;;;;;;;;;4983581;28;20226;-77
2022/09/21 11:06:52;;;;;;;1.57;0.57;;;;;;;;;;4984112;28;20216;-76
2022/09/21 11:09:21;;;;;;;1.27;0.40;;;;;;;;;;4984029;28;20198;-77
2022/09/21 11:11:52;;;;;;;2.70;0.60;;;;;;;;;;4981027;28;20214;-79
2022/09/21 11:14:25;;;;;;;3.37;0.73;;;;;;;;;;4983149;28;20725;-78
2022/09/21 11:16:56;;;;;;;3.87;0.80;;;;;;;;;;4990350;28;20599;-76
2022/09/21 11:19:29;;;;;;;5.10;1.10;;;;;;;;;;4978951;28;20202;-78
2022/09/21 11:22:01;;;;;;;4.70;0.70;;;;;;;;;;4977603;28;20201;-76
2022/09/21 11:24:33;;;;;;;3.37;0.70;;;;;;;;;;4983388;28;20253;-78
2022/09/21 11:27:03;;;;;;;9.33;0.57;;;;;;;;;;4986979;28;20642;-79
2022/09/21 11:29:34;;;;;;;2.30;0.80;;;;;;;;;;4983521;28;20209;-80
2022/09/21 11:32:09;;;;;;;7.43;1.20;;;;;;;;;;4988993;28;20255;-77
2022/09/21 11:34:46;;;;;;;8.00;2.80;;;;;;;;;;4982156;28;20245;-77
2022/09/21 11:37:36;;;;;;;1.73;0.87;;;;;;;;;;4979752;28;20295;-78
2022/09/21 11:43:56;;;;;;;2.93;1.30;;;;;;;;;;4977109;28;20187;-79
2022/09/21 11:46:30;;;;;;;9.47;5.13;;;;;;;;;;4965771;28;20239;-78
2022/09/21 11:49:11;;;;;;;5.03;1.03;;;;;;;;;;4985538;28;20201;-78
2022/09/21 11:51:43;;;;;;;10.47;2.23;;;;;;;;;;4985261;28;20232;-78
2022/09/21 11:54:20;;;;;;;4.20;0.80;;;;;;;;;;4984924;28;20231;-79
2022/09/21 11:56:50;;;;;;;3.53;1.00;;;;;;;;;;4982465;28;20202;-79
2022/09/21 11:59:33;;;;;;;4.63;0.70;;;;;;;;;;4986851;28;20204;-77
2022/09/21 12:02:18;;;;;;;2.63;0.60;;;;;;;;;;4983691;28;20205;-78
2022/09/21 12:04:49;;;;;;;1.73;0.53;;;;;;;;;;4988485;28;20288;-78
2022/09/21 12:07:26;;;;;;;2.47;0.43;;;;;;;;;;4986667;28;20217;-78
2022/09/21 12:09:58;;;;;;;6.03;0.60;;;;;;;;;;4992089;28;20204;-77
2022/09/21 12:12:29;;;;;;;1.30;0.40;;;;;;;;;;4987066;28;20206;-78
2022/09/21 12:15:01;;;;;;;3.33;0.43;;;;;;;;;;4989139;28;20653;-81
2022/09/21 12:17:33;;;;;;;1.03;0.50;;;;;;;;;;4991607;28;20656;-78
2022/09/21 12:20:04;;;;;;;2.10;0.60;;;;;;;;;;4988680;28;20231;-77
2022/09/21 12:22:33;;;;;;;1.30;0.53;;;;;;;;;;4991752;28;20212;-78
2022/09/21 12:25:02;;;;;;;4.53;0.83;;;;;;;;;;4988841;28;20557;-77
2022/09/21 12:27:32;;;;;;;3.10;0.43;;;;;;;;;;4987403;28;20594;-78
2022/09/21 12:30:01;;;;;;;3.47;0.77;;;;;;;;;;4991355;28;20685;-80
2022/09/21 12:32:32;;;;;;;6.17;0.80;;;;;;;;;;4986137;28;20694;-80
2022/09/21 12:35:01;;;;;;;4.80;0.67;;;;;;;;;;4990232;28;20286;-80
2022/09/21 12:37:37;;;;;;;3.97;0.40;;;;;;;;;;4992045;28;20199;-79
2022/09/21 12:40:14;;;;;;;2.70;0.60;;;;;;;;;;4992374;28;20586;-79
2022/09/21 12:42:42;;;;;;;2.43;0.70;;;;;;;;;;4986425;28;20607;-79
2022/09/21 12:45:14;;;;;;;4.60;0.77;;;;;;;;;;4986108;28;20212;-80
2022/09/21 12:47:58;;;;;;;2.57;0.50;;;;;;;;;;4989900;28;20220;-80
2022/09/21 12:50:28;;;;;;;6.63;0.73;;;;;;;;;;4992422;28;20204;-81
2022/09/21 12:52:57;;;;;;;2.07;0.70;;;;;;;;;;4992985;28;20658;-77
2022/09/21 12:55:44;;;;;;;1.73;0.60;;;;;;;;;;4983959;28;20256;-79
2022/09/21 12:58:16;;;;;;;1.77;0.67;;;;;;;;;;4990610;28;20197;-79
2022/09/21 13:00:48;;;;;;;3.33;0.40;;;;;;;;;;4992008;28;20659;-79
2022/09/21 13:03:21;;;;;;;7.10;0.77;;;;;;;;;;4989584;28;20202;-79
2022/09/21 13:05:55;;;;;;;4.57;0.57;;;;;;;;;;4989197;28;20201;-78
2022/09/21 13:08:27;;;;;;;1.73;0.50;;;;;;;;;;4987939;28;20253;-79
2022/09/21 13:11:03;;;;;;;6.37;0.87;;;;;;;;;;4987091;28;20209;-79
2022/09/21 13:13:33;;;;;;;1.83;0.50;;;;;;;;;;4991045;28;20283;-78
2022/09/21 13:16:07;;;;;;;2.13;0.60;;;;;;;;;;4987304;28;20217;-81
2022/09/21 13:18:36;;;;;;;6.87;0.60;;;;;;;;;;4986952;28;20197;-79
2022/09/21 13:21:15;;;;;;;3.20;0.47;;;;;;;;;;4980708;28;20205;-77
2022/09/21 13:23:43;;;;;;;2.03;0.70;;;;;;;;;;4980132;28;20244;-78
2022/09/21 13:26:11;;;;;;;0.90;0.30;;;;;;;;;;4978896;28;20279;-78
2022/09/21 13:28:57;;;;;;;4.43;0.60;;;;;;;;;;4986252;28;20311;-78
2022/09/21 13:31:31;;;;;;;1.90;0.30;;;;;;;;;;4968616;28;20201;-77
2022/09/21 13:34:20;;;;;;;4.73;0.43;;;;;;;;;;4988509;28;20232;-78
2022/09/21 13:37:12;;;;;;;3.03;0.50;;;;;;;;;;4989334;28;20223;-78
2022/09/21 13:39:44;;;;;;;0.97;0.40;;;;;;;;;;4986200;28;20754;-78
2022/09/21 13:42:30;;;;;;;0.97;0.47;;;;;;;;;;4991272;28;20208;-78
2022/09/21 13:44:58;;;;;;;1.90;0.50;;;;;;;;;;4988705;28;20579;-78
2022/09/21 13:47:29;;;;;;;1.63;0.40;;;;;;;;;;4985595;28;20995;-77
2022/09/21 13:49:57;;;;;;;3.53;0.50;;;;;;;;;;4991083;28;20211;-78
2022/09/21 13:52:30;;;;;;;2.03;0.30;;;;;;;;;;4983796;28;20743;-79
2022/09/21 13:55:00;;;;;;;2.83;0.50;;;;;;;;;;4982205;28;20315;-79
2022/09/21 13:57:31;;;;;;;0.97;0.50;;;;;;;;;;4989803;28;20677;-79
2022/09/21 14:00:13;;;;;;;1.07;0.30;;;;;;;;;;4985935;28;20567;-78
2022/09/21 14:02:42;;;;;;;1.23;0.40;;;;;;;;;;4966114;28;20210;-77
2022/09/21 14:05:19;;;;;;;1.37;0.40;;;;;;;;;;4985489;28;20737;-78
2022/09/21 14:07:47;;;;;;;2.87;0.50;;;;;;;;;;4984053;28;20733;-78
2022/09/21 14:10:19;;;;;;;1.10;0.40;;;;;;;;;;4983028;28;20202;-79
2022/09/21 14:12:46;;;;;;;1.70;0.50;;;;;;;;;;4983571;28;20436;-78
2022/09/21 14:15:32;;;;;;;1.73;0.50;;;;;;;;;;4981562;28;20233;-78
2022/09/21 14:18:10;;;;;;;0.70;0.40;;;;;;;;;;4984315;28;20693;-78
2022/09/21 14:20:37;;;;;;;1.27;0.37;;;;;;;;;;4987414;28;20852;-81
2022/09/21 14:23:27;;;;;;;1.87;0.40;;;;;;;;;;4983222;28;20210;-81
2022/09/21 14:25:56;;;;;;;3.63;0.50;;;;;;;;;;4981625;28;20612;-77
2022/09/21 14:28:33;;;;;;;3.00;0.50;;;;;;;;;;4985273;28;20220;-78
2022/09/21 14:31:02;;;;;;;1.33;0.40;;;;;;;;;;4977756;28;20219;-79
2022/09/21 14:33:32;;;;;;;2.90;0.30;;;;;;;;;;4982932;28;20686;-80
2022/09/21 14:36:01;;;;;;;1.20;0.40;;;;;;;;;;4985609;28;20208;-80
2022/09/21 14:38:30;;;;;;;0.80;0.30;;;;;;;;;;4985569;28;20195;-79
2022/09/21 14:41:01;;;;;;;2.37;0.50;;;;;;;;;;4983540;28;20220;-77
2022/09/21 14:43:32;;;;;;;3.20;0.50;;;;;;;;;;4976567;28;20700;-78
2022/09/21 14:46:18;;;;;;;1.23;0.40;;;;;;;;;;4987398;28;20205;-78
2022/09/21 14:48:51;;;;;;;1.83;0.40;;;;;;;;;;4985054;28;20247;-79
2022/09/21 14:51:21;;;;;;;1.50;0.33;;;;;;;;;;4983948;28;20288;-78
2022/09/21 14:54:03;;;;;;;2.07;0.33;;;;;;;;;;4981009;28;20233;-77
2022/09/21 14:56:37;;;;;;;3.43;0.50;;;;;;;;;;4963967;28;20681;-77
2022/09/21 14:59:18;;;;;;;0.43;0.30;;;;;;;;;;4986001;28;20196;-79
2022/09/21 15:01:58;;;;;;;2.20;0.40;;;;;;;;;;4987994;28;20630;-79
2022/09/21 15:04:32;;;;;;;1.53;0.60;;;;;;;;;;4981316;28;20737;-80
2022/09/21 15:13:00;;;;;;;0.73;0.30;;;;;;;;;;4985737;28;20619;-78
2022/09/21 15:15:35;;;;;;;1.10;0.40;;;;;;;;;;4983867;28;20230;-79
2022/09/21 15:18:02;;;;;;;3.60;0.40;;;;;;;;;;4984152;28;20212;-78
2022/09/21 15:20:31;;;;;;;0.50;0.30;;;;;;;;;;4986388;28;20299;-79
2022/09/21 15:22:58;;;;;;;1.03;0.20;;;;;;;;;;4984823;28;20214;-78
2022/09/21 15:25:27;;;;;;;1.37;0.40;;;;;;;;;;4983929;28;20235;-78
2022/09/21 15:27:55;;;;;;;2.83;0.40;;;;;;;;;;4980738;28;20710;-78
2022/09/21 15:30:25;;;;;;;2.23;0.50;;;;;;;;;;4988160;28;20748;-78
2022/09/21 15:32:54;;;;;;;1.50;0.40;;;;;;;;;;4984496;28;20216;-76
2022/09/21 15:35:22;;;;;;;1.53;0.30;;;;;;;;;;4982190;28;20244;-78